Main page
METAR-TAF:

METAR-TAF

Airports :

Fresno Yosemite International Airport

Fresno, California, United States

latitude: 36-46-48N, longitude: 119-43-10W, elevation: 331 ft

Current weather observation

The report was made 25 minutes ago, at 14:53 UTC
Wind 5 mph from the East/Northeast
Temperature 66°F
Humidity 73%
Pressure 29.83 in. Hg
Visibility: 10 miles
Broken clouds at a height of 25000 ft

METAR: KFAT 221453Z 07004KT 10SM BKN250 19/14 A2983 RMK AO2 SLP098 T01940144 53005

Time: 08:18 (15:18 UTC)

Forecast

The report was made 3 hours and 58 minutes ago, at 11:20 UTC
Forecast valid from 22 at 12 UTC to 23 at 12 UTC
Wind 7 mph from variable directions
Visibility: 6 miles
Scattered clouds at a height of 25000 ft
From 23 at 0300 UTC
Wind 9 mph from the Northwest
Visibility: 6 miles
Scattered clouds at a height of 25000 ft

TAF: KFAT 221120Z 2212/2312 VRB06KT P6SM SCT250 FM230300 31008KT P6SM SCT250

Weather observations and forecasts of more than 4000 airports (METAR and TAF reports).

The available stations are represented by yellow and red dots on the map.

Hover mouse over dot to see the name of the station.

Then click to see weather observations and forecasts.

To change the map : click on the green buttons with a black cross to zoom in, on the green button with a dash to zoom out, or on the green arrows for adjacent maps.


METAR-TAF: